createdAt,value
2017-11-11T00:00:30.281Z,949.51
2017-11-11T00:01:30.261Z,949.46
2017-11-11T00:02:30.245Z,949.45
2017-11-11T00:03:30.230Z,949.48
2017-11-11T00:04:30.214Z,949.45
2017-11-11T00:05:30.201Z,949.46
2017-11-11T00:06:30.180Z,949.46
2017-11-11T00:07:30.163Z,949.5
2017-11-11T00:08:30.210Z,949.44
2017-11-11T00:09:30.131Z,949.4
2017-11-11T00:10:30.116Z,949.38
2017-11-11T00:11:30.098Z,949.44
2017-11-11T00:12:30.080Z,949.44
2017-11-11T00:13:30.064Z,949.46
2017-11-11T00:14:30.047Z,949.47
2017-11-11T00:15:30.036Z,949.46
2017-11-11T00:16:30.015Z,949.49
2017-11-11T00:17:29.999Z,949.5
2017-11-11T00:18:29.984Z,949.52
2017-11-11T00:19:29.964Z,949.51
2017-11-11T00:20:29.949Z,949.59
2017-11-11T00:21:29.932Z,949.57
2017-11-11T00:22:29.915Z,949.57
2017-11-11T00:23:29.897Z,949.62
2017-11-11T00:24:29.880Z,949.6
2017-11-11T00:25:29.865Z,949.58
2017-11-11T00:26:29.850Z,949.64
2017-11-11T00:27:29.832Z,949.61
2017-11-11T00:28:29.822Z,949.63
2017-11-11T00:29:29.800Z,949.59
2017-11-11T00:30:29.816Z,949.62
2017-11-11T00:31:29.765Z,949.63
2017-11-11T00:32:29.749Z,949.62
2017-11-11T00:33:29.733Z,949.59
2017-11-11T00:34:29.714Z,949.64
2017-11-11T00:35:29.699Z,949.6
2017-11-11T00:36:29.682Z,949.62
2017-11-11T00:37:29.673Z,949.62
2017-11-11T00:38:29.648Z,949.65
2017-11-11T00:39:29.632Z,949.64
2017-11-11T00:40:29.616Z,949.61
2017-11-11T00:41:29.598Z,949.61
2017-11-11T00:42:29.581Z,949.63
2017-11-11T00:43:29.566Z,949.62
2017-11-11T00:44:29.548Z,949.64
2017-11-11T00:45:29.531Z,949.58
2017-11-11T00:46:29.514Z,949.6
2017-11-11T00:47:29.498Z,949.64
2017-11-11T00:48:29.482Z,949.68
2017-11-11T00:49:29.465Z,949.65
2017-11-11T00:50:29.451Z,949.71
2017-11-11T00:51:29.432Z,949.64
2017-11-11T00:52:29.413Z,949.67
2017-11-11T00:53:29.403Z,949.69
2017-11-11T00:54:29.380Z,949.74
2017-11-11T00:55:29.364Z,949.76
2017-11-11T00:56:29.352Z,949.78
2017-11-11T00:57:29.329Z,949.8
2017-11-11T00:58:29.313Z,949.8
2017-11-11T00:59:29.297Z,949.81
2017-11-11T01:00:29.279Z,949.77
2017-11-11T01:01:29.262Z,949.77
2017-11-11T01:02:29.245Z,949.77
2017-11-11T01:03:29.228Z,949.76
2017-11-11T01:04:29.211Z,949.84
2017-11-11T01:05:29.206Z,949.84
2017-11-11T01:06:29.178Z,949.85
2017-11-11T01:07:29.159Z,949.9
2017-11-11T01:08:29.143Z,949.92
2017-11-11T01:09:29.128Z,949.94
2017-11-11T01:10:29.110Z,949.91
2017-11-11T01:11:29.092Z,949.94
2017-11-11T01:12:29.077Z,949.97
2017-11-11T01:13:29.059Z,949.96
2017-11-11T01:14:29.051Z,949.95
2017-11-11T01:15:29.026Z,950
2017-11-11T01:16:29.009Z,950
2017-11-11T01:17:28.992Z,949.99
2017-11-11T01:18:28.974Z,949.99
2017-11-11T01:19:28.958Z,949.98
2017-11-11T01:20:28.940Z,950
2017-11-11T01:21:28.922Z,950.01
2017-11-11T01:22:28.907Z,949.99
2017-11-11T01:23:28.895Z,949.96
2017-11-11T01:24:28.873Z,949.93
2017-11-11T01:25:28.855Z,949.98
2017-11-11T01:26:28.838Z,949.92
2017-11-11T01:27:28.821Z,949.9
2017-11-11T01:28:28.805Z,949.91
2017-11-11T01:29:28.789Z,949.87
2017-11-11T01:30:28.772Z,949.9
2017-11-11T01:31:28.753Z,949.86
2017-11-11T01:32:28.736Z,949.87
2017-11-11T01:33:28.718Z,949.83
2017-11-11T01:34:28.703Z,949.81
2017-11-11T01:35:28.685Z,949.78
2017-11-11T01:36:28.667Z,949.78
2017-11-11T01:37:28.651Z,949.72
2017-11-11T01:38:28.636Z,949.79
2017-11-11T01:39:28.626Z,949.74
2017-11-11T01:40:28.603Z,949.78
2017-11-11T01:41:28.592Z,949.69
2017-11-11T01:42:28.566Z,949.69
2017-11-11T01:43:28.562Z,949.65
2017-11-11T01:44:28.533Z,949.66
2017-11-11T01:45:28.515Z,949.71
2017-11-11T01:46:28.506Z,949.65
2017-11-11T01:47:28.487Z,949.65
2017-11-11T01:48:28.464Z,949.65
2017-11-11T01:49:28.446Z,949.67
2017-11-11T01:50:28.438Z,949.59
2017-11-11T01:51:28.412Z,949.59
2017-11-11T01:52:28.395Z,949.59
2017-11-11T01:53:28.383Z,949.55
2017-11-11T01:54:28.360Z,949.54
2017-11-11T01:55:28.343Z,949.47
2017-11-11T01:56:28.328Z,949.49
2017-11-11T01:57:28.310Z,949.46
2017-11-11T01:58:28.293Z,949.51
2017-11-11T01:59:28.277Z,949.49
2017-11-11T02:00:28.259Z,949.54
2017-11-11T02:01:28.268Z,949.48
2017-11-11T02:02:28.224Z,949.55
2017-11-11T02:03:28.208Z,949.55
2017-11-11T02:04:28.190Z,949.5
2017-11-11T02:05:28.172Z,949.55
2017-11-11T02:06:28.168Z,949.51
2017-11-11T02:07:28.144Z,949.58
2017-11-11T02:08:28.148Z,949.52
2017-11-11T02:09:28.107Z,949.58
2017-11-11T02:10:28.091Z,949.54
2017-11-11T02:11:28.071Z,949.54
2017-11-11T02:12:28.059Z,949.56
2017-11-11T02:13:28.036Z,949.59
2017-11-11T02:14:28.026Z,949.52
2017-11-11T02:15:28.002Z,949.54
2017-11-11T02:16:27.983Z,949.55
2017-11-11T02:17:27.968Z,949.5
2017-11-11T02:18:27.952Z,949.54
2017-11-11T02:19:27.935Z,949.56
2017-11-11T02:20:27.915Z,949.53
2017-11-11T02:21:27.900Z,949.47
2017-11-11T02:22:27.886Z,949.55
2017-11-11T02:23:27.868Z,949.55
2017-11-11T02:24:27.849Z,949.54
2017-11-11T02:25:27.831Z,949.51
2017-11-11T02:26:27.816Z,949.52
2017-11-11T02:27:27.798Z,949.53
2017-11-11T02:28:27.791Z,949.51
2017-11-11T02:29:27.763Z,949.53
2017-11-11T02:30:27.749Z,949.55
2017-11-11T02:31:27.739Z,949.58
2017-11-11T02:32:27.710Z,949.49
2017-11-11T02:33:27.702Z,949.52
2017-11-11T02:34:27.692Z,949.49
2017-11-11T02:35:27.670Z,949.47
2017-11-11T02:36:27.644Z,949.52
2017-11-11T02:37:27.627Z,949.49
2017-11-11T02:38:27.610Z,949.51
2017-11-11T02:39:27.594Z,949.46
2017-11-11T02:40:27.576Z,949.46
2017-11-11T02:41:27.581Z,949.43
2017-11-11T02:42:27.550Z,949.46
2017-11-11T02:43:27.525Z,949.41
2017-11-11T02:44:27.507Z,949.48
2017-11-11T02:45:27.489Z,949.47
2017-11-11T02:46:27.490Z,949.4
2017-11-11T02:47:27.456Z,949.42
2017-11-11T02:48:27.441Z,949.41
2017-11-11T02:49:27.425Z,949.43
2017-11-11T02:50:27.405Z,949.33
2017-11-11T02:51:27.389Z,949.34
2017-11-11T02:52:27.371Z,949.38
2017-11-11T02:53:27.352Z,949.33
2017-11-11T02:54:27.336Z,949.33
2017-11-11T02:55:27.319Z,949.28
2017-11-11T02:56:27.304Z,949.32
2017-11-11T02:57:27.293Z,949.34
2017-11-11T02:58:27.268Z,949.31
2017-11-11T02:59:27.251Z,949.37
2017-11-11T03:00:27.232Z,949.36
2017-11-11T03:01:27.215Z,949.29
2017-11-11T03:02:27.199Z,949.26
2017-11-11T03:03:27.183Z,949.39
2017-11-11T03:04:27.164Z,949.26
2017-11-11T03:05:27.148Z,949.21
2017-11-11T03:06:27.131Z,949.21
2017-11-11T03:07:27.112Z,949.28
2017-11-11T03:08:27.098Z,949.26
2017-11-11T03:09:27.087Z,949.28
2017-11-11T03:10:27.062Z,949.28
2017-11-11T03:11:27.043Z,949.24
2017-11-11T03:12:27.027Z,949.28
2017-11-11T03:13:27.019Z,949.29
2017-11-11T03:14:27.004Z,949.24
2017-11-11T03:15:26.976Z,949.24
2017-11-11T03:16:26.971Z,949.24
2017-11-11T03:17:26.962Z,949.17
2017-11-11T03:18:26.925Z,949.25
2017-11-11T03:19:26.908Z,949.24
2017-11-11T03:20:26.890Z,949.22
2017-11-11T03:21:26.877Z,949.13
2017-11-11T03:22:26.884Z,949.17
2017-11-11T03:23:26.838Z,949.19
2017-11-11T03:24:26.820Z,949.16
2017-11-11T03:25:26.811Z,949.16
2017-11-11T03:26:26.788Z,949.15
2017-11-11T03:27:26.789Z,949.13
2017-11-11T03:28:26.753Z,949.2
2017-11-11T03:29:26.736Z,949.16
2017-11-11T03:30:26.721Z,949.15
2017-11-11T03:31:26.701Z,949.14
2017-11-11T03:32:26.686Z,949.1
2017-11-11T03:33:26.666Z,949.06
2017-11-11T03:34:26.655Z,949.14
2017-11-11T03:35:26.634Z,949.15
2017-11-11T03:36:26.616Z,949.1
2017-11-11T03:37:26.597Z,949.14
2017-11-11T03:38:26.582Z,949.1
2017-11-11T03:39:26.565Z,949.04
2017-11-11T03:40:26.556Z,949.04
2017-11-11T03:41:26.530Z,949.06
2017-11-11T03:42:26.512Z,948.98
2017-11-11T03:43:26.500Z,949.04
2017-11-11T03:44:26.478Z,948.95
2017-11-11T03:45:26.462Z,948.89
2017-11-11T03:46:26.445Z,948.93
2017-11-11T03:47:26.428Z,948.95
2017-11-11T03:48:26.409Z,948.87
2017-11-11T03:49:26.393Z,948.9
2017-11-11T03:50:26.375Z,948.92
2017-11-11T03:51:26.356Z,948.85
2017-11-11T03:52:26.349Z,948.81
2017-11-11T03:53:26.328Z,948.93
2017-11-11T03:54:26.306Z,948.92
2017-11-11T03:55:26.287Z,948.94
2017-11-11T03:56:26.272Z,948.98
2017-11-11T03:57:26.254Z,948.94
2017-11-11T03:58:26.238Z,948.97
2017-11-11T03:59:26.221Z,948.93
2017-11-11T04:00:26.203Z,948.93
2017-11-11T04:01:26.204Z,948.94
2017-11-11T04:02:26.169Z,948.95
2017-11-11T04:03:26.152Z,948.93
2017-11-11T04:04:26.135Z,948.96
2017-11-11T04:05:26.119Z,948.94
2017-11-11T04:06:26.101Z,949
2017-11-11T04:07:26.084Z,948.97
2017-11-11T04:08:26.075Z,948.98
2017-11-11T04:09:26.049Z,948.92
2017-11-11T04:10:26.053Z,948.97
2017-11-11T04:11:26.015Z,948.93
2017-11-11T04:12:25.998Z,948.95
2017-11-11T04:13:25.979Z,949
2017-11-11T04:14:25.966Z,948.96
2017-11-11T04:15:25.946Z,949
2017-11-11T04:16:25.930Z,949
2017-11-11T04:17:25.914Z,949
2017-11-11T04:18:25.899Z,948.98
2017-11-11T04:19:25.878Z,948.98
2017-11-11T04:20:25.862Z,948.99
2017-11-11T04:21:25.843Z,948.99
2017-11-11T04:22:25.829Z,948.99
2017-11-11T04:23:25.810Z,949.04
2017-11-11T04:24:25.794Z,948.92
2017-11-11T04:25:25.782Z,948.97
2017-11-11T04:26:25.759Z,948.96
2017-11-11T04:27:25.747Z,948.99
2017-11-11T04:28:25.733Z,948.88
2017-11-11T04:29:25.710Z,948.91
2017-11-11T04:30:25.693Z,948.89
2017-11-11T04:31:25.676Z,948.92
2017-11-11T04:32:25.658Z,948.92
2017-11-11T04:33:25.641Z,948.92
2017-11-11T04:34:25.626Z,948.92
2017-11-11T04:35:25.607Z,948.91
2017-11-11T04:36:25.599Z,948.87
2017-11-11T04:37:25.574Z,948.88
2017-11-11T04:38:25.558Z,948.89
2017-11-11T04:39:25.541Z,948.95
2017-11-11T04:40:25.525Z,948.9
2017-11-11T04:41:25.507Z,948.89
2017-11-11T04:42:25.489Z,948.76
2017-11-11T04:43:25.474Z,948.95
2017-11-11T04:44:25.458Z,948.87
2017-11-11T04:45:25.439Z,948.84
2017-11-11T04:46:25.424Z,948.95
2017-11-11T04:47:25.405Z,948.9
2017-11-11T04:48:25.392Z,948.89
2017-11-11T04:49:25.373Z,948.89
2017-11-11T04:50:25.355Z,948.93
2017-11-11T04:51:25.341Z,948.91
2017-11-11T04:52:25.322Z,948.78
2017-11-11T04:53:25.305Z,948.87
2017-11-11T04:54:25.288Z,948.88
2017-11-11T04:55:25.280Z,948.81
2017-11-11T04:56:25.256Z,948.88
2017-11-11T04:57:25.239Z,948.9
2017-11-11T04:58:25.222Z,948.87
2017-11-11T04:59:25.224Z,948.87
2017-11-11T05:00:25.190Z,948.88
2017-11-11T05:01:25.192Z,948.86
2017-11-11T05:02:25.155Z,948.81
2017-11-11T05:03:25.146Z,948.86
2017-11-11T05:04:25.126Z,948.9
2017-11-11T05:05:25.105Z,948.8
2017-11-11T05:06:25.091Z,948.79
2017-11-11T05:07:25.073Z,948.89
2017-11-11T05:08:25.055Z,948.86
2017-11-11T05:09:25.041Z,948.83
2017-11-11T05:10:25.024Z,948.84
2017-11-11T05:11:25.008Z,948.83
2017-11-11T05:12:24.990Z,948.78
2017-11-11T05:13:24.975Z,948.84
2017-11-11T05:14:24.956Z,948.74
2017-11-11T05:15:24.941Z,948.81
2017-11-11T05:16:24.925Z,948.79
2017-11-11T05:17:24.909Z,948.79
2017-11-11T05:18:24.891Z,948.8
2017-11-11T05:19:24.892Z,948.82
2017-11-11T05:20:24.859Z,948.79
2017-11-11T05:21:24.841Z,948.95
2017-11-11T05:22:24.844Z,948.79
2017-11-11T05:23:24.824Z,948.81
2017-11-11T05:24:24.792Z,948.83
2017-11-11T05:25:24.776Z,948.86
2017-11-11T05:26:24.759Z,948.89
2017-11-11T05:27:24.747Z,948.9
2017-11-11T05:28:24.726Z,948.9
2017-11-11T05:29:24.711Z,948.86
2017-11-11T05:30:24.694Z,948.89
2017-11-11T05:31:24.679Z,948.81
2017-11-11T05:32:24.674Z,948.9
2017-11-11T05:33:24.646Z,948.95
2017-11-11T05:34:24.630Z,948.87
2017-11-11T05:35:24.613Z,948.91
2017-11-11T05:36:24.598Z,948.85
2017-11-11T05:37:24.579Z,948.91
2017-11-11T05:38:24.566Z,948.88
2017-11-11T05:39:24.553Z,948.81
2017-11-11T05:40:24.538Z,948.86
2017-11-11T05:41:24.517Z,948.81
2017-11-11T05:42:24.500Z,948.81
2017-11-11T05:43:24.483Z,948.8
2017-11-11T05:44:24.468Z,948.82
2017-11-11T05:45:24.450Z,948.77
2017-11-11T05:46:24.439Z,948.77
2017-11-11T05:47:24.418Z,948.75
2017-11-11T05:48:24.401Z,948.75
2017-11-11T05:49:24.385Z,948.72
2017-11-11T05:50:24.367Z,948.75
2017-11-11T05:51:24.356Z,948.71
2017-11-11T05:52:24.336Z,948.76
2017-11-11T05:53:24.321Z,948.71
2017-11-11T05:54:24.304Z,948.76
2017-11-11T05:55:24.303Z,948.73
2017-11-11T05:56:24.271Z,948.69
2017-11-11T05:57:24.255Z,948.66
2017-11-11T05:58:24.240Z,948.62
2017-11-11T05:59:24.251Z,948.68
2017-11-11T06:00:24.206Z,948.65
2017-11-11T06:01:24.190Z,948.69
2017-11-11T06:02:24.174Z,948.71
2017-11-11T06:03:24.159Z,948.72
2017-11-11T06:04:24.141Z,948.72
2017-11-11T06:05:24.125Z,948.76
2017-11-11T06:06:24.111Z,948.7
2017-11-11T06:07:24.091Z,948.7
2017-11-11T06:08:24.076Z,948.71
2017-11-11T06:09:24.059Z,948.72
2017-11-11T06:10:24.044Z,948.73
2017-11-11T06:11:24.028Z,948.73
2017-11-11T06:12:24.028Z,948.71
2017-11-11T06:13:23.996Z,948.77
2017-11-11T06:14:23.981Z,948.73
2017-11-11T06:15:23.962Z,948.85
2017-11-11T06:16:23.945Z,948.77
2017-11-11T06:17:23.930Z,948.81
2017-11-11T06:18:23.920Z,948.8
2017-11-11T06:19:23.900Z,948.77
2017-11-11T06:20:23.882Z,948.8
2017-11-11T06:21:23.865Z,948.8
2017-11-11T06:22:23.849Z,948.77
2017-11-11T06:23:23.832Z,948.75
2017-11-11T06:24:23.816Z,948.78
2017-11-11T06:25:23.802Z,948.76
2017-11-11T06:26:23.785Z,948.81
2017-11-11T06:27:23.769Z,948.79
2017-11-11T06:28:23.751Z,948.76
2017-11-11T06:29:23.734Z,948.78
2017-11-11T06:30:23.720Z,948.78
2017-11-11T06:31:23.704Z,948.76
2017-11-11T06:32:23.689Z,948.76
2017-11-11T06:33:23.672Z,948.78
2017-11-11T06:34:23.656Z,948.77
2017-11-11T06:35:23.638Z,948.79
2017-11-11T06:36:23.623Z,948.77
2017-11-11T06:37:23.614Z,948.82
2017-11-11T06:38:23.594Z,948.83
2017-11-11T06:39:23.574Z,948.75
2017-11-11T06:40:23.558Z,948.78
2017-11-11T06:41:23.541Z,948.79
2017-11-11T06:42:23.525Z,948.75
2017-11-11T06:43:23.508Z,948.81
2017-11-11T06:44:23.506Z,948.8
2017-11-11T06:45:23.479Z,948.81
2017-11-11T06:46:23.459Z,948.78
2017-11-11T06:47:23.445Z,948.79
2017-11-11T06:48:23.429Z,948.83
2017-11-11T06:49:23.411Z,948.84
2017-11-11T06:50:23.406Z,948.86
2017-11-11T06:51:23.383Z,948.91
2017-11-11T06:52:23.363Z,948.9
2017-11-11T06:53:23.347Z,948.84
2017-11-11T06:54:23.333Z,948.83
2017-11-11T06:55:23.315Z,948.79
2017-11-11T06:56:23.300Z,948.92
2017-11-11T06:57:23.283Z,948.85
2017-11-11T06:58:23.283Z,948.82
2017-11-11T06:59:23.251Z,948.8
2017-11-11T07:00:23.235Z,948.88
2017-11-11T07:01:23.219Z,948.82
2017-11-11T07:02:23.203Z,948.94
2017-11-11T07:03:23.187Z,948.9
2017-11-11T07:04:23.172Z,948.84
2017-11-11T07:05:23.154Z,948.91
2017-11-11T07:06:23.138Z,948.87
2017-11-11T07:07:23.132Z,948.85
2017-11-11T07:08:23.107Z,948.82
2017-11-11T07:09:23.092Z,948.8
2017-11-11T07:10:23.083Z,948.8
2017-11-11T07:11:23.059Z,948.74
2017-11-11T07:12:23.042Z,948.75
2017-11-11T07:13:23.027Z,948.76
2017-11-11T07:14:23.029Z,948.7
2017-11-11T07:15:22.995Z,948.75
2017-11-11T07:16:22.978Z,948.77
2017-11-11T07:17:22.963Z,948.79
2017-11-11T07:18:22.954Z,948.82
2017-11-11T07:19:22.931Z,948.8
2017-11-11T07:20:22.913Z,948.84
2017-11-11T07:21:22.901Z,948.75
2017-11-11T07:22:22.882Z,948.85
2017-11-11T07:23:22.864Z,948.79
2017-11-11T07:24:22.849Z,948.78
2017-11-11T07:25:22.833Z,948.77
2017-11-11T07:26:22.819Z,948.8
2017-11-11T07:27:22.801Z,948.84
2017-11-11T07:28:22.787Z,948.77
2017-11-11T07:29:22.771Z,948.83
2017-11-11T07:30:22.758Z,948.79
2017-11-11T07:31:22.737Z,948.78
2017-11-11T07:32:22.729Z,948.83
2017-11-11T07:33:22.706Z,948.87
2017-11-11T07:34:22.689Z,948.88
2017-11-11T07:35:22.672Z,948.84
2017-11-11T07:36:22.661Z,948.9
2017-11-11T07:37:22.663Z,948.8
2017-11-11T07:38:22.625Z,948.8
2017-11-11T07:39:22.615Z,948.8
2017-11-11T07:40:22.594Z,948.81
2017-11-11T07:41:22.584Z,948.82
2017-11-11T07:42:22.562Z,948.82
2017-11-11T07:43:22.546Z,948.83
2017-11-11T07:44:22.533Z,948.76
2017-11-11T07:45:22.522Z,948.72
2017-11-11T07:46:22.499Z,948.77
2017-11-11T07:47:22.483Z,948.81
2017-11-11T07:48:22.481Z,948.81
2017-11-11T07:49:22.455Z,948.75
2017-11-11T07:50:22.437Z,948.72
2017-11-11T07:51:22.434Z,948.69
2017-11-11T07:52:22.402Z,948.77
2017-11-11T07:53:22.387Z,948.7
2017-11-11T07:54:22.393Z,948.75
2017-11-11T07:55:22.357Z,948.78
2017-11-11T07:56:22.340Z,948.71
2017-11-11T07:57:22.340Z,948.73
2017-11-11T07:58:22.310Z,948.66
2017-11-11T07:59:22.296Z,948.69
2017-11-11T08:00:22.293Z,948.69
2017-11-11T08:01:22.263Z,948.67
2017-11-11T08:02:22.247Z,948.67
2017-11-11T08:03:22.230Z,948.68
2017-11-11T08:04:22.214Z,948.62
2017-11-11T08:05:22.198Z,948.63
2017-11-11T08:06:22.186Z,948.66
2017-11-11T08:07:22.175Z,948.67
2017-11-11T08:08:22.153Z,948.67
2017-11-11T08:09:22.142Z,948.7
2017-11-11T08:10:22.140Z,948.66
2017-11-11T08:11:22.108Z,948.62
2017-11-11T08:12:22.091Z,948.63
2017-11-11T08:13:22.078Z,948.66
2017-11-11T08:14:22.060Z,948.62
2017-11-11T08:15:22.044Z,948.62
2017-11-11T08:16:22.036Z,948.57
2017-11-11T08:17:22.014Z,948.55
2017-11-11T08:18:21.998Z,948.57
2017-11-11T08:19:21.982Z,948.56
2017-11-11T08:20:21.967Z,948.62
2017-11-11T08:21:21.952Z,948.45
2017-11-11T08:22:21.947Z,948.46
2017-11-11T08:23:21.952Z,948.5
2017-11-11T08:24:21.905Z,948.47
2017-11-11T08:25:21.890Z,948.42
2017-11-11T08:26:21.874Z,948.51
2017-11-11T08:27:21.860Z,948.42
2017-11-11T08:28:21.845Z,948.4
2017-11-11T08:29:21.845Z,948.38
2017-11-11T08:30:21.814Z,948.38
2017-11-11T08:31:21.800Z,948.29
2017-11-11T08:32:21.784Z,948.25
2017-11-11T08:33:21.769Z,948.3
2017-11-11T08:34:21.753Z,948.21
2017-11-11T08:35:21.738Z,948.18
2017-11-11T08:36:21.733Z,948.29
2017-11-11T08:37:21.708Z,948.25
2017-11-11T08:38:21.692Z,948.18
2017-11-11T08:39:21.677Z,948.15
2017-11-11T08:40:21.662Z,948.25
2017-11-11T08:41:21.652Z,948.18
2017-11-11T08:42:21.630Z,948.22
2017-11-11T08:43:21.617Z,948.23
2017-11-11T08:44:21.604Z,948.26
2017-11-11T08:45:21.586Z,948.27
2017-11-11T08:46:21.573Z,948.22
2017-11-11T08:47:21.555Z,948.21
2017-11-11T08:48:21.560Z,948.19
2017-11-11T08:49:21.527Z,948.16
2017-11-11T08:50:21.511Z,948.14
2017-11-11T08:51:21.495Z,948.15
2017-11-11T08:52:21.489Z,948.21
2017-11-11T08:53:21.466Z,948.15
2017-11-11T08:54:21.459Z,948.15
2017-11-11T08:55:21.437Z,948.17
2017-11-11T08:56:21.420Z,948.15
2017-11-11T08:57:21.405Z,948.16
2017-11-11T08:58:21.392Z,948.14
2017-11-11T08:59:21.377Z,948.05
2017-11-11T09:00:21.363Z,948.1
2017-11-11T09:01:21.345Z,948.07
2017-11-11T09:02:21.330Z,948.05
2017-11-11T09:03:21.314Z,948
2017-11-11T09:04:21.301Z,948.06
2017-11-11T09:05:21.284Z,948.05
2017-11-11T09:06:21.271Z,948.03
2017-11-11T09:07:21.254Z,947.96
2017-11-11T09:08:21.241Z,947.99
2017-11-11T09:09:21.225Z,948.03
2017-11-11T09:10:21.210Z,947.96
2017-11-11T09:11:21.197Z,948.03
2017-11-11T09:12:21.191Z,948.04
2017-11-11T09:13:21.165Z,948.02
2017-11-11T09:14:21.151Z,948.13
2017-11-11T09:15:21.136Z,948.07
2017-11-11T09:16:21.121Z,948.13
2017-11-11T09:17:21.106Z,948.01
2017-11-11T09:18:21.091Z,947.96
2017-11-11T09:19:21.076Z,948
2017-11-11T09:20:21.060Z,948.01
2017-11-11T09:21:21.050Z,948.05
2017-11-11T09:22:21.054Z,948.05
2017-11-11T09:23:21.019Z,947.97
2017-11-11T09:24:21.003Z,947.96
2017-11-11T09:25:20.988Z,947.97
2017-11-11T09:26:20.972Z,948.02
2017-11-11T09:27:20.958Z,947.96
2017-11-11T09:28:20.944Z,947.98
2017-11-11T09:29:20.934Z,947.84
2017-11-11T09:30:20.931Z,947.93
2017-11-11T09:31:20.903Z,947.88
2017-11-11T09:32:20.890Z,947.89
2017-11-11T09:33:20.870Z,947.91
2017-11-11T09:34:20.855Z,947.87
2017-11-11T09:35:20.839Z,947.91
2017-11-11T09:36:20.826Z,947.9
2017-11-11T09:37:20.823Z,947.86
2017-11-11T09:38:20.794Z,947.73
2017-11-11T09:39:20.781Z,947.78
2017-11-11T09:40:20.765Z,947.78
2017-11-11T09:41:20.752Z,947.84
2017-11-11T09:42:20.737Z,947.81
2017-11-11T09:43:20.721Z,947.82
2017-11-11T09:44:20.707Z,947.81
2017-11-11T09:45:20.691Z,947.74
2017-11-11T09:46:20.676Z,947.74
2017-11-11T09:47:20.662Z,947.76
2017-11-11T09:48:20.650Z,947.72
2017-11-11T09:49:20.631Z,947.62
2017-11-11T09:50:20.620Z,947.69
2017-11-11T09:51:20.604Z,947.75
2017-11-11T09:52:20.589Z,947.64
2017-11-11T09:53:20.573Z,947.68
2017-11-11T09:54:20.559Z,947.68
2017-11-11T09:55:20.544Z,947.73
2017-11-11T09:56:20.529Z,947.72
2017-11-11T09:57:20.513Z,947.6
2017-11-11T09:58:20.499Z,947.59
2017-11-11T09:59:20.486Z,947.59
2017-11-11T10:00:20.472Z,947.59
2017-11-11T10:01:20.467Z,947.57
2017-11-11T10:02:20.439Z,947.55
2017-11-11T10:03:20.427Z,947.54
2017-11-11T10:04:20.409Z,947.6
2017-11-11T10:05:20.400Z,947.48
2017-11-11T10:06:20.381Z,947.51
2017-11-11T10:07:20.365Z,947.53
2017-11-11T10:08:20.352Z,947.56
2017-11-11T10:09:20.335Z,947.47
2017-11-11T10:10:20.322Z,947.5
2017-11-11T10:11:20.323Z,947.54
2017-11-11T10:12:20.293Z,947.47
2017-11-11T10:13:20.279Z,947.55
2017-11-11T10:14:20.263Z,947.43
2017-11-11T10:15:20.251Z,947.41
2017-11-11T10:16:20.233Z,947.41
2017-11-11T10:17:20.219Z,947.43
2017-11-11T10:18:20.203Z,947.34
2017-11-11T10:19:20.188Z,947.34
2017-11-11T10:20:20.178Z,947.41
2017-11-11T10:21:20.160Z,947.29
2017-11-11T10:22:20.147Z,947.3
2017-11-11T10:23:20.133Z,947.29
2017-11-11T10:24:20.116Z,947.24
2017-11-11T10:25:20.100Z,947.26
2017-11-11T10:26:20.087Z,947.25
2017-11-11T10:27:20.071Z,947.26
2017-11-11T10:28:20.056Z,947.2
2017-11-11T10:29:20.049Z,947.14
2017-11-11T10:30:20.026Z,947.17
2017-11-11T10:31:20.011Z,947.11
2017-11-11T10:32:19.998Z,947.15
2017-11-11T10:33:19.983Z,947.13
2017-11-11T10:34:19.967Z,947.16
2017-11-11T10:35:19.953Z,947.13
2017-11-11T10:36:19.940Z,947.22
2017-11-11T10:37:19.923Z,947.16
2017-11-11T10:38:19.935Z,947.14
2017-11-11T10:39:19.894Z,947.04
2017-11-11T10:40:19.924Z,947.07
2017-11-11T10:41:19.865Z,947.05
2017-11-11T10:42:19.854Z,947.07
2017-11-11T10:43:19.835Z,947
2017-11-11T10:44:19.821Z,946.98
2017-11-11T10:45:19.807Z,946.95
2017-11-11T10:46:19.791Z,946.92
2017-11-11T10:47:19.777Z,946.92
2017-11-11T10:48:19.762Z,946.98
2017-11-11T10:49:19.746Z,946.95
2017-11-11T10:50:19.733Z,946.93
2017-11-11T10:51:19.717Z,947
2017-11-11T10:52:19.703Z,946.95
2017-11-11T10:53:19.689Z,947
2017-11-11T10:54:19.674Z,946.99
2017-11-11T10:55:19.658Z,946.91
2017-11-11T10:56:19.648Z,946.97
2017-11-11T10:57:19.633Z,946.91
2017-11-11T10:58:19.620Z,946.86
2017-11-11T10:59:19.600Z,946.82
2017-11-11T11:00:19.586Z,946.91
2017-11-11T11:01:19.570Z,946.83
2017-11-11T11:02:19.561Z,946.79
2017-11-11T11:03:19.541Z,946.81
2017-11-11T11:04:19.526Z,946.86
2017-11-11T11:05:19.513Z,946.79
2017-11-11T11:06:19.498Z,946.79
2017-11-11T11:07:19.482Z,946.75
2017-11-11T11:08:19.468Z,946.77
2017-11-11T11:09:19.454Z,946.76
2017-11-11T11:10:19.439Z,946.73
2017-11-11T11:11:19.424Z,946.72
2017-11-11T11:12:19.410Z,946.77
2017-11-11T11:13:19.396Z,946.72
2017-11-11T11:14:19.380Z,946.74
2017-11-11T11:15:19.366Z,946.76
2017-11-11T11:16:19.352Z,946.82
2017-11-11T11:17:19.336Z,946.72
2017-11-11T11:18:19.323Z,946.74
2017-11-11T11:19:19.308Z,946.75
2017-11-11T11:20:19.293Z,946.71
2017-11-11T11:21:19.277Z,946.78
2017-11-11T11:22:19.264Z,946.7
2017-11-11T11:23:19.250Z,946.69
2017-11-11T11:24:19.233Z,946.64
2017-11-11T11:25:19.220Z,946.66
2017-11-11T11:26:19.212Z,946.7
2017-11-11T11:27:19.191Z,946.65
2017-11-11T11:28:19.198Z,946.62
2017-11-11T11:29:19.162Z,946.55
2017-11-11T11:30:19.153Z,946.55
2017-11-11T11:31:19.133Z,946.55
2017-11-11T11:32:19.117Z,946.55
2017-11-11T11:33:19.110Z,946.56
2017-11-11T11:34:19.088Z,946.47
2017-11-11T11:35:19.077Z,946.45
2017-11-11T11:36:19.059Z,946.46
2017-11-11T11:37:19.044Z,946.42
2017-11-11T11:38:19.031Z,946.33
2017-11-11T11:39:19.017Z,946.34
2017-11-11T11:40:19.011Z,946.43
2017-11-11T11:41:18.988Z,946.37
2017-11-11T11:42:18.973Z,946.39
2017-11-11T11:43:18.958Z,946.33
2017-11-11T11:44:18.944Z,946.29
2017-11-11T11:45:18.930Z,946.27
2017-11-11T11:46:18.913Z,946.23
2017-11-11T11:47:18.900Z,946.28
2017-11-11T11:48:18.885Z,946.27
2017-11-11T11:49:18.871Z,946.2
2017-11-11T11:50:18.877Z,946.19
2017-11-11T11:51:18.843Z,946.16
2017-11-11T11:52:18.830Z,946.2
2017-11-11T11:53:18.816Z,946.18
2017-11-11T11:54:18.805Z,946.15
2017-11-11T11:55:18.785Z,945.98
2017-11-11T11:56:18.770Z,946.06
2017-11-11T11:57:18.755Z,946.08
2017-11-11T11:58:18.742Z,945.98
2017-11-11T11:59:18.727Z,945.99
2017-11-11T12:00:18.713Z,945.93
2017-11-11T12:01:18.698Z,945.97
2017-11-11T12:02:18.682Z,945.95
2017-11-11T12:03:18.670Z,945.96
2017-11-11T12:04:18.653Z,945.9
2017-11-11T12:05:18.640Z,945.91
2017-11-11T12:06:18.625Z,945.92
2017-11-11T12:07:18.621Z,945.87
2017-11-11T12:08:18.597Z,945.83
2017-11-11T12:09:18.581Z,945.83
2017-11-11T12:10:18.585Z,945.8
2017-11-11T12:11:18.554Z,945.77
2017-11-11T12:12:18.540Z,945.79
2017-11-11T12:13:18.525Z,945.67
2017-11-11T12:14:18.512Z,945.71
2017-11-11T12:15:18.503Z,945.66
2017-11-11T12:16:18.782Z,945.69
2017-11-11T12:17:18.466Z,945.69
2017-11-11T12:18:18.453Z,945.72
2017-11-11T12:19:18.440Z,945.74
2017-11-11T12:20:18.425Z,945.71
2017-11-11T12:21:18.411Z,945.61
2017-11-11T12:22:18.396Z,945.61
2017-11-11T12:23:18.382Z,945.59
2017-11-11T12:24:18.368Z,945.62
2017-11-11T12:25:18.353Z,945.62
2017-11-11T12:26:18.340Z,945.6
2017-11-11T12:27:18.324Z,945.58
2017-11-11T12:28:18.315Z,945.58
2017-11-11T12:29:18.296Z,945.5
2017-11-11T12:30:18.288Z,945.5
2017-11-11T12:31:18.272Z,945.52